Archival Weather

Chicago O'Hare International

Chicago, Illinois (KORD)

Report from: Sunday, January 21, 2024 1:51 PM CST
Current time: Wednesday, April 24, 2024 2:01 PM CDT

Current weather – Weather history – Daily summaries
Weather forecast

Temperature-8.3°C (17.1°F)
Wind chill-16.1°C (3.0°F)
Dew point-16.1°C (3.0°F)
Winds 12 kts (6.2 m/s, 13.8 mph) South (190°)
Wind gusts 21 kts (10.8 m/s, 24.2 mph)
Visibility10 mi. (16.1 km)
Clouds Ceiling: Broken clouds 22,000 ft. (6,706 m)
Broken clouds 25,000 ft. (7,620 m)
Altimeter30.46 in.Hg (1031 mB)
Relative humidity53 %
Density altitude-3,547 ft. (-1,081 m)
Sea-level pressure103.3 kPa (1033 mB, 30.51 in.Hg)
Remarks Automated weather observing station with precipitation discriminator
Virga observed northeast
Flight conditions Visual Meteorological Conditions
Raw dataKORD 211951Z 19012G21KT 10SM BKN220 BKN250 M08/M16 A3046 RMK AO2 SLP331 VIRGA NE T10831161
An error has occurred. This application may no longer respond until reloaded. Reload 🗙